Time;durP1;ratioP1;P1;durP2;ratioP2;P2;SDS_P1;SDS_P2;PMS_P1;PMS_P2;Temp;Humidity;BMP_temperature;BMP_pressure;BME280_temperature;BME280_humidity;BME280_pressure;Samples;Min_cycle;Max_cycle;Signal;HPM_P1;HPM_P2
2023/02/13 00:01:29;;;;;;;;;41.00;39.67;;;;;;;;5042073;28;8949;-83
2023/02/13 00:03:56;;;;;;;;;59.00;49.67;;;;;;;;5030811;28;8884;-83
2023/02/13 00:06:25;;;;;;;;;59.67;46.00;;;;;;;;5040966;28;9645;-83
2023/02/13 00:08:53;;;;;;;;;59.67;49.00;;;;;;;;5028054;28;8897;-83
2023/02/13 00:11:20;;;;;;;;;57.67;45.67;;;;;;;;5043965;28;8937;-83
2023/02/13 00:13:48;;;;;;;;;58.33;46.33;;;;;;;;5053403;28;8868;-84
2023/02/13 00:16:15;;;;;;;;;62.00;51.00;;;;;;;;5048928;28;8883;-83
2023/02/13 00:18:43;;;;;;;;;51.00;44.67;;;;;;;;5045601;28;8866;-83
2023/02/13 00:21:12;;;;;;;;;68.67;55.00;;;;;;;;5048992;28;8869;-83
2023/02/13 00:23:41;;;;;;;;;66.33;48.00;;;;;;;;5047088;28;8844;-83
2023/02/13 00:26:09;;;;;;;;;58.00;46.00;;;;;;;;5049723;28;8989;-84
2023/02/13 00:28:37;;;;;;;;;53.00;44.67;;;;;;;;5044146;28;8943;-84
2023/02/13 00:31:06;;;;;;;;;62.67;51.00;;;;;;;;5045809;28;8816;-86
2023/02/13 00:33:34;;;;;;;;;66.67;54.33;;;;;;;;5040465;28;8847;-84
2023/02/13 00:36:06;;;;;;;;;64.00;52.67;;;;;;;;5043950;28;9053;-83
2023/02/13 00:38:33;;;;;;;;;58.00;49.33;;;;;;;;5045000;28;8877;-84
2023/02/13 00:41:02;;;;;;;;;58.00;47.33;;;;;;;;5049165;28;8846;-84
2023/02/13 00:43:30;;;;;;;;;56.67;43.67;;;;;;;;5044178;28;8977;-84
2023/02/13 00:45:58;;;;;;;;;48.67;44.00;;;;;;;;5042322;28;8835;-83
2023/02/13 00:48:26;;;;;;;;;46.67;40.33;;;;;;;;5039561;28;8851;-84
2023/02/13 00:50:53;;;;;;;;;40.33;39.00;;;;;;;;5047605;28;8891;-84
2023/02/13 00:53:21;;;;;;;;;52.67;41.00;;;;;;;;5038846;28;8862;-84
2023/02/13 00:55:49;;;;;;;;;52.33;38.33;;;;;;;;5040191;28;8882;-84
2023/02/13 00:58:18;;;;;;;;;50.00;44.33;;;;;;;;5046653;28;8866;-84
2023/02/13 01:00:47;;;;;;;;;38.33;36.00;;;;;;;;5040483;28;8831;-84
2023/02/13 01:03:15;;;;;;;;;54.00;44.33;;;;;;;;5041582;28;8855;-84
2023/02/13 01:05:43;;;;;;;;;44.67;40.67;;;;;;;;5046372;28;8895;-84
2023/02/13 01:08:11;;;;;;;;;42.67;37.33;;;;;;;;5046764;28;9605;-83
2023/02/13 01:10:39;;;;;;;;;42.33;35.33;;;;;;;;5039418;28;8839;-84
2023/02/13 01:13:07;;;;;;;;;34.33;34.33;;;;;;;;5041954;28;8866;-84
2023/02/13 01:15:37;;;;;;;;;43.67;41.00;;;;;;;;5029165;28;8886;-83
2023/02/13 01:18:04;;;;;;;;;46.00;41.33;;;;;;;;5044255;28;8844;-83
2023/02/13 01:20:32;;;;;;;;;39.67;29.67;;;;;;;;5041864;28;8847;-84
2023/02/13 01:22:59;;;;;;;;;41.67;34.00;;;;;;;;5041221;28;8985;-84
2023/02/13 01:25:27;;;;;;;;;34.67;29.00;;;;;;;;5039097;28;8878;-84
2023/02/13 01:27:55;;;;;;;;;44.00;32.00;;;;;;;;5039712;28;8910;-83
2023/02/13 01:30:22;;;;;;;;;53.33;46.67;;;;;;;;5040069;28;8984;-84
2023/02/13 01:32:51;;;;;;;;;42.67;41.33;;;;;;;;5042641;28;8835;-83
2023/02/13 01:35:19;;;;;;;;;46.33;35.00;;;;;;;;5044560;28;8859;-83
2023/02/13 01:37:46;;;;;;;;;42.67;36.33;;;;;;;;5039799;28;8864;-83
2023/02/13 01:40:16;;;;;;;;;41.33;39.33;;;;;;;;5041628;28;8865;-84
2023/02/13 01:42:43;;;;;;;;;51.33;41.00;;;;;;;;5042735;28;8875;-84
2023/02/13 01:45:24;;;;;;;;;49.67;44.00;;;;;;;;5040120;28;8892;-83
2023/02/13 01:47:55;;;;;;;;;57.67;46.00;;;;;;;;5039809;28;8871;-84
2023/02/13 01:50:33;;;;;;;;;52.33;46.00;;;;;;;;5041513;28;8988;-83
2023/02/13 01:53:04;;;;;;;;;54.67;44.33;;;;;;;;5045499;28;8871;-83
2023/02/13 01:55:33;;;;;;;;;50.00;44.67;;;;;;;;5039487;28;8898;-84
2023/02/13 01:58:06;;;;;;;;;51.67;44.33;;;;;;;;5043156;28;8877;-84
2023/02/13 02:00:34;;;;;;;;;45.33;36.00;;;;;;;;5038615;28;8876;-84
2023/02/13 02:03:07;;;;;;;;;58.67;45.67;;;;;;;;5038554;28;8867;-84
2023/02/13 02:05:35;;;;;;;;;54.00;44.67;;;;;;;;5024157;28;8849;-84
2023/02/13 02:08:05;;;;;;;;;58.00;46.00;;;;;;;;5037727;28;8847;-83
2023/02/13 02:10:32;;;;;;;;;48.00;43.00;;;;;;;;5041596;28;8866;-83
2023/02/13 02:13:05;;;;;;;;;56.33;47.67;;;;;;;;5039453;28;8871;-84
2023/02/13 02:15:32;;;;;;;;;60.67;51.33;;;;;;;;5040514;28;8805;-84
2023/02/13 02:18:00;;;;;;;;;53.00;44.33;;;;;;;;5040477;28;8883;-84
2023/02/13 02:21:00;;;;;;;;;52.00;46.00;;;;;;;;5043021;28;8850;-84
2023/02/13 02:23:56;;;;;;;;;62.00;48.00;;;;;;;;5040551;28;8871;-84
2023/02/13 02:26:58;;;;;;;;;54.00;45.00;;;;;;;;5014095;28;8861;-83
2023/02/13 02:29:51;;;;;;;;;51.33;46.00;;;;;;;;5037273;28;9005;-84
2023/02/13 02:32:28;;;;;;;;;58.33;48.67;;;;;;;;5039016;28;8811;-84
2023/02/13 02:35:01;;;;;;;;;53.33;45.67;;;;;;;;5045467;28;8819;-84
2023/02/13 02:37:44;;;;;;;;;51.67;45.33;;;;;;;;5043343;28;8870;-84
2023/02/13 02:40:20;;;;;;;;;56.00;48.67;;;;;;;;5041571;28;8895;-86
2023/02/13 02:42:59;;;;;;;;;53.67;42.00;;;;;;;;5047553;28;9622;-84
2023/02/13 02:45:31;;;;;;;;;54.67;46.00;;;;;;;;5040301;28;8859;-84
2023/02/13 02:50:52;;;;;;;;;41.33;40.00;;;;;;;;5050834;28;8838;-84
2023/02/13 02:53:29;;;;;;;;;50.33;44.00;;;;;;;;5037293;28;8884;-84
2023/02/13 02:56:02;;;;;;;;;51.00;41.67;;;;;;;;5045370;28;8858;-85
2023/02/13 03:07:04;;;;;;;;;49.00;38.33;;;;;;;;5027841;28;8838;-84
2023/02/13 03:15:09;;;;;;;;;48.67;41.00;;;;;;;;5022449;28;8842;-83
2023/02/13 03:23:20;;;;;;;;;42.00;36.67;;;;;;;;5024264;28;8830;-84
2023/02/13 03:26:03;;;;;;;;;43.33;39.00;;;;;;;;5026106;28;8963;-83
2023/02/13 03:31:24;;;;;;;;;48.67;35.33;;;;;;;;5003986;28;8900;-83
2023/02/13 03:33:58;;;;;;;;;53.00;42.00;;;;;;;;5023661;28;8867;-83
2023/02/13 03:39:27;;;;;;;;;42.00;35.67;;;;;;;;5022185;28;8836;-84
2023/02/13 03:41:57;;;;;;;;;51.33;41.00;;;;;;;;5025546;28;8866;-84
2023/02/13 03:44:29;;;;;;;;;38.67;34.67;;;;;;;;5031762;28;8862;-84
2023/02/13 03:46:59;;;;;;;;;40.33;37.33;;;;;;;;5029177;28;8873;-84
2023/02/13 03:52:22;;;;;;;;;44.00;37.67;;;;;;;;5022777;28;8854;-83
2023/02/13 04:00:28;;;;;;;;;34.33;32.33;;;;;;;;5042486;28;8787;-83
2023/02/13 04:03:01;;;;;;;;;40.00;37.00;;;;;;;;5040578;28;8845;-81
2023/02/13 04:05:30;;;;;;;;;38.33;32.67;;;;;;;;5040851;28;8962;-83
2023/02/13 04:07:59;;;;;;;;;41.33;37.33;;;;;;;;5043819;28;9005;-83
2023/02/13 04:10:32;;;;;;;;;40.67;32.67;;;;;;;;5044661;28;8875;-84
2023/02/13 04:13:06;;;;;;;;;43.67;33.33;;;;;;;;5041320;28;8877;-84
2023/02/13 04:15:38;;;;;;;;;32.00;27.67;;;;;;;;5042478;28;8860;-83
2023/02/13 04:18:10;;;;;;;;;38.00;29.00;;;;;;;;5041299;28;8872;-83
2023/02/13 04:20:37;;;;;;;;;36.67;36.33;;;;;;;;5043081;28;8862;-84
2023/02/13 04:23:07;;;;;;;;;35.33;31.67;;;;;;;;5045290;28;8851;-83
2023/02/13 04:25:35;;;;;;;;;35.33;32.00;;;;;;;;5042882;28;8883;-84
2023/02/13 04:28:03;;;;;;;;;39.33;28.00;;;;;;;;5046636;28;8862;-84
2023/02/13 04:30:31;;;;;;;;;34.00;27.00;;;;;;;;5038783;28;8795;-84
2023/02/13 04:32:58;;;;;;;;;38.00;35.00;;;;;;;;5038892;28;8883;-83
2023/02/13 04:35:26;;;;;;;;;38.33;35.67;;;;;;;;5045646;28;8817;-83
2023/02/13 04:37:54;;;;;;;;;39.00;29.33;;;;;;;;5042094;28;8873;-83
2023/02/13 04:40:22;;;;;;;;;50.00;39.67;;;;;;;;5038591;28;8858;-84
2023/02/13 04:42:50;;;;;;;;;42.33;32.33;;;;;;;;5039177;28;8867;-83
2023/02/13 04:45:18;;;;;;;;;41.67;32.67;;;;;;;;5042563;28;8851;-83
2023/02/13 04:47:51;;;;;;;;;43.67;33.00;;;;;;;;5037322;28;9012;-83
2023/02/13 04:50:18;;;;;;;;;34.67;27.33;;;;;;;;5042712;28;8864;-84
2023/02/13 04:52:46;;;;;;;;;34.67;33.00;;;;;;;;5044292;28;8965;-83
2023/02/13 04:55:14;;;;;;;;;25.00;25.00;;;;;;;;5039974;28;8849;-84
2023/02/13 04:57:43;;;;;;;;;33.67;29.33;;;;;;;;5039901;28;9679;-83
2023/02/13 05:00:11;;;;;;;;;35.67;30.00;;;;;;;;5040643;28;8897;-84
2023/02/13 05:02:39;;;;;;;;;31.00;27.67;;;;;;;;5040587;28;8887;-84
2023/02/13 05:05:07;;;;;;;;;28.33;24.67;;;;;;;;5041513;28;8865;-85
2023/02/13 05:07:34;;;;;;;;;45.33;34.33;;;;;;;;5043637;28;8859;-85
2023/02/13 05:10:01;;;;;;;;;34.33;29.67;;;;;;;;5045729;28;8858;-84
2023/02/13 05:12:28;;;;;;;;;43.67;38.67;;;;;;;;5041663;28;8854;-84
2023/02/13 05:14:57;;;;;;;;;36.67;32.00;;;;;;;;5041756;28;8871;-84
2023/02/13 05:17:24;;;;;;;;;40.67;36.00;;;;;;;;5041278;28;8865;-83
2023/02/13 05:19:52;;;;;;;;;34.67;26.67;;;;;;;;5039585;28;8858;-84
2023/02/13 05:25:04;;;;;;;;;47.67;42.00;;;;;;;;5047749;28;8816;-83
2023/02/13 05:27:32;;;;;;;;;55.67;42.33;;;;;;;;5038803;28;8864;-83
2023/02/13 05:30:01;;;;;;;;;44.33;39.67;;;;;;;;5044429;28;8882;-83
2023/02/13 05:32:28;;;;;;;;;57.67;47.00;;;;;;;;5040497;28;8805;-84
2023/02/13 05:34:55;;;;;;;;;45.00;42.00;;;;;;;;5038535;28;8874;-83
2023/02/13 05:37:23;;;;;;;;;41.33;39.33;;;;;;;;5042080;28;8964;-84
2023/02/13 05:39:50;;;;;;;;;66.00;50.00;;;;;;;;5040954;28;8882;-84
2023/02/13 05:42:18;;;;;;;;;51.33;44.33;;;;;;;;5035022;28;8988;-84
2023/02/13 05:44:45;;;;;;;;;60.67;46.33;;;;;;;;5043966;28;8929;-84
2023/02/13 05:47:14;;;;;;;;;57.67;46.00;;;;;;;;5027862;28;8963;-84
2023/02/13 05:49:42;;;;;;;;;56.00;46.00;;;;;;;;5039698;28;9005;-84
2023/02/13 05:52:09;;;;;;;;;56.33;47.67;;;;;;;;5039810;28;8992;-83
2023/02/13 05:54:37;;;;;;;;;64.33;47.67;;;;;;;;5043681;28;8854;-84
2023/02/13 05:57:05;;;;;;;;;48.67;44.00;;;;;;;;5043031;28;8852;-84
2023/02/13 05:59:32;;;;;;;;;57.33;48.00;;;;;;;;5040232;28;8858;-83
2023/02/13 06:02:00;;;;;;;;;69.33;53.33;;;;;;;;5046377;28;8833;-85
2023/02/13 06:04:29;;;;;;;;;61.67;52.33;;;;;;;;5041920;28;8992;-84
2023/02/13 06:06:57;;;;;;;;;63.67;50.00;;;;;;;;5044436;28;8856;-83
2023/02/13 06:09:24;;;;;;;;;59.33;48.67;;;;;;;;5049280;28;8837;-84
2023/02/13 06:11:52;;;;;;;;;67.33;55.67;;;;;;;;5051465;28;8854;-85
2023/02/13 06:14:19;;;;;;;;;50.33;43.67;;;;;;;;5045850;28;8858;-84
2023/02/13 06:16:46;;;;;;;;;64.00;49.33;;;;;;;;5048915;28;8878;-83
2023/02/13 06:19:14;;;;;;;;;56.00;46.00;;;;;;;;5050803;28;8851;-84
2023/02/13 06:21:43;;;;;;;;;58.33;46.33;;;;;;;;5046885;28;9795;-82
2023/02/13 06:24:10;;;;;;;;;45.67;35.00;;;;;;;;5044166;28;8847;-84
2023/02/13 06:26:38;;;;;;;;;54.67;44.33;;;;;;;;5052727;28;8862;-82
2023/02/13 06:29:05;;;;;;;;;48.33;44.00;;;;;;;;5048246;28;8835;-84
2023/02/13 06:31:32;;;;;;;;;50.33;46.00;;;;;;;;5053377;28;8850;-83
2023/02/13 06:34:00;;;;;;;;;49.33;41.33;;;;;;;;5048915;28;8858;-83
2023/02/13 06:36:27;;;;;;;;;67.00;50.33;;;;;;;;5046948;28;8862;-83
2023/02/13 06:38:56;;;;;;;;;63.00;49.00;;;;;;;;5044270;28;8978;-83
2023/02/13 06:41:23;;;;;;;;;57.33;46.33;;;;;;;;5050978;28;8969;-83
2023/02/13 06:43:51;;;;;;;;;59.67;49.67;;;;;;;;5046604;28;8867;-83
2023/02/13 06:46:19;;;;;;;;;58.00;45.00;;;;;;;;5044547;28;8908;-82
2023/02/13 06:48:47;;;;;;;;;62.33;49.00;;;;;;;;5048495;28;8889;-82
2023/02/13 06:51:14;;;;;;;;;51.33;45.00;;;;;;;;5047141;28;8869;-82
2023/02/13 06:53:41;;;;;;;;;58.00;47.00;;;;;;;;5053430;28;8884;-82
2023/02/13 06:56:10;;;;;;;;;63.00;52.00;;;;;;;;5051945;28;8891;-84
2023/02/13 06:58:38;;;;;;;;;63.00;49.00;;;;;;;;5025638;28;8874;-82
2023/02/13 07:01:08;;;;;;;;;50.67;42.00;;;;;;;;5045409;28;8795;-83
2023/02/13 07:03:37;;;;;;;;;63.00;48.67;;;;;;;;5041458;28;8860;-84
2023/02/13 07:06:04;;;;;;;;;70.00;53.67;;;;;;;;5044072;28;8968;-83
2023/02/13 07:08:32;;;;;;;;;68.67;52.00;;;;;;;;5038750;28;8860;-84
2023/02/13 07:10:59;;;;;;;;;58.33;49.33;;;;;;;;5045198;28;8880;-83
2023/02/13 07:13:28;;;;;;;;;44.67;38.00;;;;;;;;5044124;28;8902;-83
2023/02/13 07:15:56;;;;;;;;;68.67;55.67;;;;;;;;5041106;28;8869;-84
2023/02/13 07:18:24;;;;;;;;;57.67;47.33;;;;;;;;5042490;28;8864;-82
2023/02/13 07:20:53;;;;;;;;;63.00;48.67;;;;;;;;5040365;28;8860;-72
2023/02/13 07:26:03;;;;;;;;;63.33;53.00;;;;;;;;5044704;28;9397;-72
2023/02/13 07:28:32;;;;;;;;;63.33;50.00;;;;;;;;5046474;28;8878;-71
2023/02/13 07:31:04;;;;;;;;;65.67;51.33;;;;;;;;5047334;28;8813;-72
2023/02/13 07:33:31;;;;;;;;;68.33;53.67;;;;;;;;5049245;28;9267;-72
2023/02/13 07:35:58;;;;;;;;;71.67;56.67;;;;;;;;5051905;28;8833;-72
2023/02/13 07:38:26;;;;;;;;;94.50;69.50;;;;;;;;5044666;28;8840;-71
2023/02/13 07:40:53;;;;;;;;;82.33;61.33;;;;;;;;5046873;28;9588;-71
2023/02/13 07:43:20;;;;;;;;;91.67;65.67;;;;;;;;5047386;28;8845;-71
2023/02/13 07:45:54;;;;;;;;;82.00;61.33;;;;;;;;5049473;28;8852;-71
2023/02/13 07:48:21;;;;;;;;;82.00;64.00;;;;;;;;5043835;28;8848;-70
2023/02/13 07:50:48;;;;;;;;;88.33;66.67;;;;;;;;5046125;28;9652;-71
2023/02/13 07:53:16;;;;;;;;;95.75;72.00;;;;;;;;5043655;28;8879;-71
2023/02/13 07:55:43;;;;;;;;;92.75;73.25;;;;;;;;5042933;28;9691;-69
2023/02/13 07:58:10;;;;;;;;;87.67;70.00;;;;;;;;5048282;28;8872;-70
2023/02/13 08:00:37;;;;;;;;;81.33;65.67;;;;;;;;5050044;28;8955;-70
2023/02/13 08:03:06;;;;;;;;;75.67;58.67;;;;;;;;5044261;28;8867;-71
2023/02/13 08:05:34;;;;;;;;;62.00;50.00;;;;;;;;5040791;28;8874;-70
2023/02/13 08:08:01;;;;;;;;;46.00;44.33;;;;;;;;5042288;28;8837;-70
2023/02/13 08:13:15;;;;;;;;;77.67;62.67;;;;;;;;5043100;28;8834;-69
2023/02/13 08:15:43;;;;;;;;;68.00;52.00;;;;;;;;5043947;28;8961;-70
2023/02/13 08:18:12;;;;;;;;;65.67;52.33;;;;;;;;5040716;28;8860;-70
2023/02/13 08:20:39;;;;;;;;;57.00;48.67;;;;;;;;5041877;28;8830;-70
2023/02/13 08:23:09;;;;;;;;;65.00;53.33;;;;;;;;5039604;28;8870;-69
2023/02/13 08:25:38;;;;;;;;;60.33;46.33;;;;;;;;5039057;28;8874;-71
2023/02/13 08:28:05;;;;;;;;;52.33;46.00;;;;;;;;5036782;28;8829;-71
2023/02/13 08:30:32;;;;;;;;;73.33;58.33;;;;;;;;5038928;28;8792;-71
2023/02/13 08:33:00;;;;;;;;;66.00;50.33;;;;;;;;5040927;28;8844;-70
2023/02/13 08:35:30;;;;;;;;;74.67;57.33;;;;;;;;5039409;28;8836;-72
2023/02/13 08:38:01;;;;;;;;;64.33;52.67;;;;;;;;5039258;28;8980;-70
2023/02/13 08:40:28;;;;;;;;;47.67;43.00;;;;;;;;5039482;28;8851;-70
2023/02/13 08:43:01;;;;;;;;;67.00;50.67;;;;;;;;5041835;28;8840;-70
2023/02/13 08:45:28;;;;;;;;;56.33;46.67;;;;;;;;5042320;28;8849;-71
2023/02/13 08:47:57;;;;;;;;;59.33;48.00;;;;;;;;5039141;28;8866;-69
2023/02/13 08:50:24;;;;;;;;;59.33;48.33;;;;;;;;5039445;28;8824;-71
2023/02/13 08:52:53;;;;;;;;;52.33;43.00;;;;;;;;5041411;28;8990;-71
2023/02/13 08:55:20;;;;;;;;;71.00;56.00;;;;;;;;5043563;28;8923;-71
2023/02/13 08:57:48;;;;;;;;;60.33;50.33;;;;;;;;5039796;28;8832;-69
2023/02/13 09:00:15;;;;;;;;;64.00;49.00;;;;;;;;5037922;28;8838;-73
2023/02/13 09:02:43;;;;;;;;;53.00;46.67;;;;;;;;5040997;28;8862;-71
2023/02/13 09:05:10;;;;;;;;;63.33;48.33;;;;;;;;5040773;28;8918;-72
2023/02/13 09:07:37;;;;;;;;;59.00;47.00;;;;;;;;5037284;28;8896;-71
2023/02/13 09:10:07;;;;;;;;;60.67;49.67;;;;;;;;5038035;28;9311;-72
2023/02/13 09:12:34;;;;;;;;;50.00;45.00;;;;;;;;5039694;28;9253;-72
2023/02/13 09:15:02;;;;;;;;;59.67;43.33;;;;;;;;5045964;28;11541;-74
2023/02/13 09:17:29;;;;;;;;;55.33;45.67;;;;;;;;5044926;28;8880;-73
2023/02/13 09:19:56;;;;;;;;;56.67;48.67;;;;;;;;5043894;28;11564;-73
2023/02/13 09:22:24;;;;;;;;;69.67;57.00;;;;;;;;5037907;28;11673;-72
2023/02/13 09:24:51;;;;;;;;;67.33;56.33;;;;;;;;5042419;28;8843;-73
2023/02/13 09:27:20;;;;;;;;;78.67;61.33;;;;;;;;5039236;28;8842;-73
2023/02/13 09:29:47;;;;;;;;;70.00;54.67;;;;;;;;5042031;28;8841;-72
2023/02/13 09:32:15;;;;;;;;;75.67;57.00;;;;;;;;5039927;28;8826;-73
2023/02/13 09:34:43;;;;;;;;;74.00;58.67;;;;;;;;5045328;28;8884;-76
2023/02/13 09:37:10;;;;;;;;;67.33;54.67;;;;;;;;5043138;28;8874;-74
2023/02/13 09:39:38;;;;;;;;;77.33;60.33;;;;;;;;5038177;28;8824;-74
2023/02/13 09:42:15;;;;;;;;;78.67;60.00;;;;;;;;5044238;28;9652;-73
2023/02/13 09:44:45;;;;;;;;;74.33;58.33;;;;;;;;5043782;28;8957;-73
2023/02/13 09:47:16;;;;;;;;;59.33;50.00;;;;;;;;5043417;28;8872;-73
2023/02/13 09:49:48;;;;;;;;;56.50;45.25;;;;;;;;5049004;28;12929;-74
2023/02/13 09:52:15;;;;;;;;;58.50;45.50;;;;;;;;5047068;28;11561;-70
2023/02/13 09:54:43;;;;;;;;;51.50;41.25;;;;;;;;5042220;28;11622;-71
2023/02/13 09:57:17;;;;;;;;;50.50;40.25;;;;;;;;5047712;28;11660;-70
2023/02/13 09:59:56;;;;;;;;;46.00;41.00;;;;;;;;5033071;28;11453;-71
2023/02/13 10:02:41;;;;;;;;;46.75;42.00;;;;;;;;5023269;28;11548;-69
2023/02/13 10:05:22;;;;;;;;;50.00;42.75;;;;;;;;5022181;28;11557;-71
2023/02/13 10:07:55;;;;;;;;;49.25;41.50;;;;;;;;5019597;28;12251;-71
2023/02/13 10:10:31;;;;;;;;;45.25;38.00;;;;;;;;5020845;28;11515;-75
2023/02/13 10:13:07;;;;;;;;;46.25;39.75;;;;;;;;5022367;28;11525;-72
2023/02/13 10:15:43;;;;;;;;;41.75;39.50;;;;;;;;5023886;28;11530;-72
2023/02/13 10:18:14;;;;;;;;;40.75;37.75;;;;;;;;5022243;28;11551;-71
2023/02/13 10:20:45;;;;;;;;;42.25;38.50;;;;;;;;5022342;28;11525;-71
2023/02/13 10:23:21;;;;;;;;;43.25;39.00;;;;;;;;5024041;28;11534;-74
2023/02/13 10:25:52;;;;;;;;;46.25;37.50;;;;;;;;5022226;28;11516;-73
2023/02/13 10:28:31;;;;;;;;;40.00;36.25;;;;;;;;5014919;28;11538;-73
2023/02/13 10:31:05;;;;;;;;;39.75;35.50;;;;;;;;5023044;28;12287;-74
2023/02/13 10:33:37;;;;;;;;;37.50;34.50;;;;;;;;5016474;28;11565;-73
2023/02/13 10:36:12;;;;;;;;;45.75;38.75;;;;;;;;5022819;28;11515;-75
2023/02/13 10:38:43;;;;;;;;;43.50;38.50;;;;;;;;5025508;28;11490;-73
2023/02/13 10:41:25;;;;;;;;;44.75;37.50;;;;;;;;5020624;28;11471;-73
2023/02/13 10:44:06;;;;;;;;;42.00;38.50;;;;;;;;5022634;28;11470;-70
2023/02/13 10:46:43;;;;;;;;;46.50;38.75;;;;;;;;5018627;28;11573;-73
2023/02/13 10:49:43;;;;;;;;;52.00;38.50;;;;;;;;5022103;28;11491;-70
2023/02/13 10:52:17;;;;;;;;;45.25;38.25;;;;;;;;5020278;28;11668;-72
2023/02/13 10:55:15;;;;;;;;;41.25;38.00;;;;;;;;5020396;28;11423;-70
2023/02/13 10:58:00;;;;;;;;;35.25;28.75;;;;;;;;5026238;28;11479;-71
2023/02/13 11:00:33;;;;;;;;;41.25;37.25;;;;;;;;5039748;28;11830;-72
2023/02/13 11:03:02;;;;;;;;;38.00;35.50;;;;;;;;5039371;28;11016;-72
2023/02/13 11:05:33;;;;;;;;;39.75;36.50;;;;;;;;5044175;28;11181;-71
2023/02/13 11:08:01;;;;;;;;;37.75;33.25;;;;;;;;5038426;28;10786;-72
2023/02/13 11:10:28;;;;;;;;;46.50;35.50;;;;;;;;5036705;28;10583;-72
2023/02/13 11:12:56;;;;;;;;;42.00;37.75;;;;;;;;5043341;28;10602;-72
2023/02/13 11:15:25;;;;;;;;;41.25;37.00;;;;;;;;5040872;28;10419;-73
2023/02/13 11:17:54;;;;;;;;;35.75;34.25;;;;;;;;5042971;28;10663;-71
2023/02/13 11:20:34;;;;;;;;;45.75;38.25;;;;;;;;5036399;28;10701;-72
2023/02/13 11:23:34;;;;;;;;;33.75;31.75;;;;;;;;5039984;28;10520;-72
2023/02/13 11:26:06;;;;;;;;;32.00;29.50;;;;;;;;5035331;28;10140;-72
2023/02/13 11:28:37;;;;;;;;;43.00;34.50;;;;;;;;5038041;28;9975;-73
2023/02/13 11:31:14;;;;;;;;;42.50;35.25;;;;;;;;5037077;28;9979;-72
2023/02/13 11:33:42;;;;;;;;;36.50;31.50;;;;;;;;5040414;28;10211;-72
2023/02/13 11:36:14;;;;;;;;;35.50;33.75;;;;;;;;5036802;28;9884;-72
2023/02/13 11:38:42;;;;;;;;;41.50;37.50;;;;;;;;5038856;28;9682;-71
2023/02/13 11:41:11;;;;;;;;;41.25;35.25;;;;;;;;5043312;28;9636;-73
2023/02/13 11:43:45;;;;;;;;;38.25;36.00;;;;;;;;5035276;28;9815;-71
2023/02/13 11:46:18;;;;;;;;;45.75;36.75;;;;;;;;5037541;28;9603;-72
2023/02/13 11:48:58;;;;;;;;;42.00;36.00;;;;;;;;5039787;28;9554;-73
2023/02/13 11:51:41;;;;;;;;;41.67;35.67;;;;;;;;5035057;28;9399;-73
2023/02/13 11:54:24;;;;;;;;;40.33;34.67;;;;;;;;5037571;28;9481;-72
2023/02/13 11:56:53;;;;;;;;;35.67;33.33;;;;;;;;5040224;28;10139;-71
2023/02/13 11:59:23;;;;;;;;;36.67;33.33;;;;;;;;5039504;28;9264;-73
2023/02/13 12:02:03;;;;;;;;;37.33;34.00;;;;;;;;5037210;28;9173;-73
2023/02/13 12:04:30;;;;;;;;;41.67;36.67;;;;;;;;5037759;28;9187;-70
2023/02/13 12:07:03;;;;;;;;;37.33;33.67;;;;;;;;5040372;28;9104;-70
2023/02/13 12:09:31;;;;;;;;;42.00;36.67;;;;;;;;5039563;28;8940;-70
2023/02/13 12:12:02;;;;;;;;;42.67;36.33;;;;;;;;5038572;28;9027;-71
2023/02/13 12:14:33;;;;;;;;;33.33;32.00;;;;;;;;5035724;28;8944;-72
2023/02/13 12:17:03;;;;;;;;;35.33;33.67;;;;;;;;5036861;28;9788;-72
2023/02/13 12:19:35;;;;;;;;;38.33;33.33;;;;;;;;5041660;28;9017;-73
2023/02/13 12:22:18;;;;;;;;;50.00;40.00;;;;;;;;5032232;28;8983;-71
2023/02/13 12:24:58;;;;;;;;;36.67;33.00;;;;;;;;5040773;28;10130;-74
2023/02/13 12:27:32;;;;;;;;;49.33;39.33;;;;;;;;5034401;28;8994;-74
2023/02/13 12:30:30;;;;;;;;;51.33;38.33;;;;;;;;5038672;28;9111;-72
2023/02/13 12:33:03;;;;;;;;;32.00;32.00;;;;;;;;5033256;28;8938;-72
2023/02/13 12:35:41;;;;;;;;;32.50;28.25;;;;;;;;5033194;28;8986;-73
2023/02/13 12:38:23;;;;;;;;;37.50;32.00;;;;;;;;5040251;28;8809;-72
2023/02/13 12:41:02;;;;;;;;;38.25;34.50;;;;;;;;5045715;28;8846;-72
2023/02/13 12:43:49;;;;;;;;;36.25;33.50;;;;;;;;5034537;28;8934;-73
2023/02/13 12:46:22;;;;;;;;;40.00;33.50;;;;;;;;5007876;28;8908;-71
2023/02/13 12:48:55;;;;;;;;;39.25;34.75;;;;;;;;5037279;28;8861;-75
2023/02/13 12:51:34;;;;;;;;;29.75;29.75;;;;;;;;5037559;28;8848;-74
2023/02/13 12:54:16;;;;;;;;;38.50;34.75;;;;;;;;5040291;28;8841;-73
2023/02/13 12:57:00;;;;;;;;;32.50;31.75;;;;;;;;5036973;28;8865;-73
2023/02/13 12:59:34;;;;;;;;;32.50;31.50;;;;;;;;5035826;28;8845;-78
2023/02/13 13:02:21;;;;;;;;;37.75;34.00;;;;;;;;5039593;28;8831;-73
2023/02/13 13:04:59;;;;;;;;;28.75;26.00;;;;;;;;5035086;28;8873;-75
2023/02/13 13:07:40;;;;;;;;;41.50;35.00;;;;;;;;5041251;28;8834;-74
2023/02/13 13:10:21;;;;;;;;;40.25;36.50;;;;;;;;5044516;28;8862;-74
2023/02/13 13:12:54;;;;;;;;;31.25;30.50;;;;;;;;5041493;28;8850;-73
2023/02/13 13:15:30;;;;;;;;;32.00;31.75;;;;;;;;5041566;28;8843;-72
2023/02/13 13:18:08;;;;;;;;;32.25;27.75;;;;;;;;5031205;28;8835;-73
2023/02/13 13:21:01;;;;;;;;;36.00;32.25;;;;;;;;5039724;28;9648;-72
2023/02/13 13:23:32;;;;;;;;;35.75;31.25;;;;;;;;5043135;28;9653;-71
2023/02/13 13:26:10;;;;;;;;;33.75;30.00;;;;;;;;5040611;28;8866;-71
2023/02/13 13:28:40;;;;;;;;;38.00;34.75;;;;;;;;5031684;28;8986;-71
2023/02/13 13:31:08;;;;;;;;;32.00;31.50;;;;;;;;5044859;28;8781;-71
2023/02/13 13:33:36;;;;;;;;;23.00;23.00;;;;;;;;5041371;28;8880;-70
2023/02/13 13:36:09;;;;;;;;;27.75;26.75;;;;;;;;5044475;28;8857;-71
2023/02/13 13:38:50;;;;;;;;;34.50;30.25;;;;;;;;5040067;28;8867;-71
2023/02/13 13:41:27;;;;;;;;;28.00;28.00;;;;;;;;5039539;28;8846;-71
2023/02/13 13:44:16;;;;;;;;;32.25;31.25;;;;;;;;5035706;28;9791;-71
2023/02/13 13:46:52;;;;;;;;;32.50;28.75;;;;;;;;5036158;28;9546;-72
2023/02/13 13:49:31;;;;;;;;;34.75;31.75;;;;;;;;5025086;28;9608;-72
2023/02/13 13:52:11;;;;;;;;;37.00;33.00;;;;;;;;5039459;28;8864;-71
2023/02/13 13:54:38;;;;;;;;;28.00;25.00;;;;;;;;5039192;28;8863;-71
2023/02/13 13:57:10;;;;;;;;;27.50;27.50;;;;;;;;5044500;28;8881;-70
2023/02/13 14:00:24;;;;;;;;;38.00;34.25;;;;;;;;5037701;28;8884;-71
2023/02/13 14:03:07;;;;;;;;;38.00;33.00;;;;;;;;5020823;28;8827;-71
2023/02/13 14:05:39;;;;;;;;;30.50;30.50;;;;;;;;5032477;28;8858;-72
2023/02/13 14:08:53;;;;;;;;;32.50;30.25;;;;;;;;5030474;28;8835;-72
2023/02/13 14:11:32;;;;;;;;;30.25;27.00;;;;;;;;5033503;28;8890;-72
2023/02/13 14:14:02;;;;;;;;;35.25;32.75;;;;;;;;5033478;28;8965;-74
2023/02/13 14:16:42;;;;;;;;;38.00;33.75;;;;;;;;5030247;28;8843;-73
2023/02/13 14:19:26;;;;;;;;;29.50;26.25;;;;;;;;5034699;28;8904;-74
2023/02/13 14:21:54;;;;;;;;;24.67;23.33;;;;;;;;5029047;28;8829;-74
2023/02/13 14:24:23;;;;;;;;;33.25;32.00;;;;;;;;5037445;28;8865;-73
2023/02/13 14:26:53;;;;;;;;;41.50;33.00;;;;;;;;5039569;28;8932;-75
2023/02/13 14:29:31;;;;;;;;;33.25;29.50;;;;;;;;5038020;28;8850;-75
2023/02/13 14:32:05;;;;;;;;;36.50;32.50;;;;;;;;5038950;28;8788;-75
2023/02/13 14:34:35;;;;;;;;;32.00;30.00;;;;;;;;5041267;28;9622;-74
2023/02/13 14:37:19;;;;;;;;;30.25;30.00;;;;;;;;5041241;28;8960;-74
2023/02/13 14:40:28;;;;;;;;;30.50;27.75;;;;;;;;5039603;28;8898;-74
2023/02/13 14:43:01;;;;;;;;;38.00;30.75;;;;;;;;5037549;28;9604;-74
2023/02/13 14:45:32;;;;;;;;;33.50;31.75;;;;;;;;5038305;28;8882;-75
2023/02/13 14:48:06;;;;;;;;;32.00;30.00;;;;;;;;5034400;28;8843;-74
2023/02/13 14:50:45;;;;;;;;;29.50;27.75;;;;;;;;5037802;28;8890;-73
2023/02/13 14:53:19;;;;;;;;;25.50;25.50;;;;;;;;5034051;28;8932;-73
2023/02/13 14:55:51;;;;;;;;;33.25;30.75;;;;;;;;5034616;28;8865;-73
2023/02/13 14:58:24;;;;;;;;;35.50;31.00;;;;;;;;5033510;28;8935;-75
2023/02/13 15:00:55;;;;;;;;;28.25;28.25;;;;;;;;5037237;28;8831;-74
2023/02/13 15:03:27;;;;;;;;;27.20;27.00;;;;;;;;5042523;28;8871;-72
2023/02/13 15:05:57;;;;;;;;;23.00;23.00;;;;;;;;5044482;28;8877;-73
2023/02/13 15:08:27;;;;;;;;;42.00;35.00;;;;;;;;5044992;28;9670;-71
2023/02/13 15:10:56;;;;;;;;;40.75;35.00;;;;;;;;5043620;28;8864;-73
2023/02/13 15:13:25;;;;;;;;;34.50;32.50;;;;;;;;5040254;28;8858;-74
2023/02/13 15:15:56;;;;;;;;;28.50;26.25;;;;;;;;5036734;28;8854;-73
2023/02/13 15:18:27;;;;;;;;;30.75;29.00;;;;;;;;5038761;28;8831;-72
2023/02/13 15:20:57;;;;;;;;;29.50;27.25;;;;;;;;5040529;28;9707;-71
2023/02/13 15:23:26;;;;;;;;;28.25;27.75;;;;;;;;5041254;28;8877;-72
2023/02/13 15:25:58;;;;;;;;;28.75;27.25;;;;;;;;5044172;28;8866;-72
2023/02/13 15:28:26;;;;;;;;;27.50;24.75;;;;;;;;5036885;28;8854;-71
2023/02/13 15:30:57;;;;;;;;;23.75;23.75;;;;;;;;5043120;28;8805;-72
2023/02/13 15:33:26;;;;;;;;;28.25;28.25;;;;;;;;5037311;28;9141;-73
2023/02/13 15:35:58;;;;;;;;;25.50;22.75;;;;;;;;5036600;28;8849;-71
2023/02/13 15:38:29;;;;;;;;;28.50;26.25;;;;;;;;5036691;28;8852;-73
2023/02/13 15:41:00;;;;;;;;;26.25;26.25;;;;;;;;5042180;28;8866;-73